Belize City, Belize
Current Conditions -  °F | °C
As of 6:00 AM on Wednesday 22 Oct 2014 (Local Time) from MZBZ Reporting Station
Scattered Clouds Scattered Clouds  
Wind Chill: 26°   Ceiling: Unl
Heat Index: 28°   Visibility: 6mi
Dew Point: 25°   Wind: 0mph
Humidity: 94%   Direction: NA
Pressure: 29.73"   Gusts: NA
Location:  17.5°N, 88.19°W
Report Text: MZBZ 221200Z 00000KT 9999 FEW016 SCT045 26/25 A2973 Q1006RETS NOSIG
Loading
Personal Weather Stations






























Interactive Weather Map
Tropical Storm Tracking
New forecast layout! Learn more

10-Day Weather Forecast

Advertisements
Track Severe Weather on mobile